Kezdőlap
METAR-TAF:

METAR-TAF

Repülőterek :

Ushuaia, Argentína

földrajzi szélesség: 54-48S, földrajzi hosszúság: 068-19W, magasság: 16 m

Jelenlegi meteorológiai megfigyelések

A jelentés 41 perccel ezelõtt készült, 10:00 UTC
Észak-északnyugati szél 3 kt
Hőmérséklet -3°C
Páratartalom 86%
Légköri nyomás 1021 hPa
Látótávolság 10 km, vagy több
Szakadozott felhőzet 3000 lábon

METAR: SAWH 161000Z 34003KT 9999 BKN030 M03/M05 Q1021

Idő: 07:41 (10:41 UTC)

Előrejelzés

A jelentés 5 órával és 41 perccel ezelõtt készült, 05:00 UTC
Az előrejelzés 16-én 06 óra UTC és 17-én 06 óra UTC között érvényes
Észak-északnyugati szél 5 kt
Látótávolság 10 km, vagy több
Szórványos felhőzet 4000 lábon
16-én 10 óra UTC és 16-én 12 óra UTC között fokozatosan kialakuló
Nyugat-északnyugati szél 10 kt
Szakadozott felhőzet 3000 lábon

TAF: SAWH 160500Z 1606/1706 34005KT 9999 SCT040 TX03/1618Z TNM04/1611Z BECMG 1610/1612 30010KT BKN030

Meteorológiai megfigyelések és előrejelzések több, mint 4000 repülőtéren (METAR és TAF jelentéseket).

A térképen piros és sárga pontok jelzik az elérhető meteorológiai állomásokat.

Mozgassa az egeret a pont fölött, hogy megjelenjen az állomás neve.

Azután kattintson az időjárási megfigyelések és előrejelzések megtekintéséhez.

A térkép megváltoztatása: kattintson a fekete keresztel jelölt zöld gombra ráközelítéshez, a vonallal jelölt zöld gombra távolításhoz, vagy a zöld nyilakra a szomszédos térképek eléréséhez.


METAR-TAF: